Terminal Aerodrome Forecast
Issued by NWS

Home | Current Version | Previous Version | Text Only | Print | Product List | Glossary On
Versions: 1 2 3 4 5 6 7 8 9 10 11 12 13 14 15 16 17 18 19 20 21 22 23 24 25 26 27 28 29 30 31 32 33 34 35 36 37 38
000
FTUS43 KDMX 291211 RRA
TAFFOD
TAF
KFOD 291211Z 2912/3012 01005KT 6SM -SN BR OVC035
      TEMPO 2912/2915 2SM -SN BR BKN017
     FM291500 04009KT 6SM -SN BR OVC040
      TEMPO 2915/2918 5SM -SN BR OVC020
     FM292200 02011KT P6SM FEW017 BKN060
     FM300400 35007KT P6SM BKN050
     FM300900 36006KT P6SM FEW020=

USA.gov is the U.S. government's official web portal to all federal, state and local government web resources and services.